Back to top

Jackson, WY weather

Jackson Hole Airport (AWOS), Jackson, WY: 6/04/2020 03:56
Visibility10 statute mileslots of clouds
View 7-Day Forecast
Area Summary
Sky/CloudsSolid Overcast at 11000ft
Weather [last 24 hours]None [rain began 12:52; rain ended 14:29 began 14:55; rain ended 15:30 began 15:46; rain ended 18:18; thunderstorm ended 19:51; rain began 20:14 ended 20:27 ]
Pressure30.03 in.Hg (1017 hPa)
Dew Point43 °F (6.1 °C)
Relative Humidity92.7 %
Last 24-Hour Precip.0.2 in. (5.08 mm)
Reading TimePrecipitation
6-hr ending 6/3@23:560.02 in. (0.508 mm)
6-hr ending 6/3@17:560.18 in. (4.572 mm)
Temperature45 °F (7.2 °C)red thermometer
Reading TimeMinimum to Maximum Temperature
6-hr ending 6/3@23:5643 °F to 60.1 °F (6.1 °C to 15.6 °C)
6-hr ending 6/3@17:5651.1 °F to 71.1 °F (10.6 °C to 21.7 °C)
6-hr ending 6/3@11:5644.1 °F to 71.1 °F (6.7 °C to 21.7 °C)
6-hr ending 6/3@05:5645 °F to 55.9 °F (7.2 °C to 13.3 °C)
24-hr ending 6/4@00:5643 °F to 71.1 °F (6.1 °C to 21.7 °C)
Wind3.45 MPH (3 KT) green arrow pointing 135 degrees
Wind FromSoutheast (140 Degrees)
Rolling 24-hr Peak Wind31.1 MPH (27 KT) on 6/3@17:27
Rolling 24-hr Peak Wind FromNorthwest (320 Degrees)
Twilight Begins05:05Sunshine Yesterday
Sunrise05:41N/A
Sunset21:03
Twilight Ends21:38
METARKJAC 040956Z AUTO 14003KT 10SM OVC110 07/06 A3003 RMK AO2 SLP128 T00720061
Tags: